Time;durP1;ratioP1;P1;durP2;ratioP2;P2;SDS_P1;SDS_P2;PMS_P1;PMS_P2;Temp;Humidity;BMP_temperature;BMP_pressure;BME280_temperature;BME280_humidity;BME280_pressure;Samples;Min_cycle;Max_cycle;Signal;HPM_P1;HPM_P2
2022/09/03 00:00:03;;;;;;;3.30;1.80;;;16.00;99.90;;;;;;5031406;28;20134;-81
2022/09/03 00:02:44;;;;;;;8.25;2.00;;;16.00;99.90;;;;;;5049511;28;20569;-80
2022/09/03 00:05:25;;;;;;;8.50;2.20;;;16.00;99.90;;;;;;5031001;28;20029;-82
2022/09/03 00:08:22;;;;;;;4.20;1.75;;;15.90;99.90;;;;;;5031911;28;20027;-81
2022/09/03 00:11:03;;;;;;;3.30;1.77;;;15.90;99.90;;;;;;5049561;28;20039;-81
2022/09/03 00:13:35;;;;;;;6.60;2.28;;;15.80;99.90;;;;;;5031584;28;20025;-81
2022/09/03 00:16:08;;;;;;;9.93;3.10;;;15.80;99.90;;;;;;5031582;28;20044;-82
2022/09/03 00:18:40;;;;;;;4.55;1.80;;;15.70;99.90;;;;;;5031406;28;20074;-80
2022/09/03 00:21:17;;;;;;;3.40;1.52;;;15.70;99.90;;;;;;5030778;28;20086;-82
2022/09/03 00:23:47;;;;;;;4.20;1.40;;;15.70;99.90;;;;;;5031075;28;20120;-81
2022/09/03 00:26:13;;;;;;;5.38;1.65;;;15.70;99.90;;;;;;5030599;28;20033;-81
2022/09/03 00:29:02;;;;;;;6.25;1.98;;;15.70;99.90;;;;;;5049063;28;20032;-81
2022/09/03 00:31:35;;;;;;;4.53;1.55;;;15.70;99.90;;;;;;5030556;28;20029;-81
2022/09/03 00:34:31;;;;;;;4.18;1.95;;;15.70;99.90;;;;;;5048436;28;20128;-81
2022/09/03 00:36:57;;;;;;;4.43;1.67;;;15.70;99.90;;;;;;5048774;28;20104;-82
2022/09/03 00:39:25;;;;;;;3.70;1.13;;;15.80;99.90;;;;;;5030479;28;20397;-81
2022/09/03 00:42:28;;;;;;;5.25;1.42;;;15.80;99.90;;;;;;5048203;28;20021;-82
2022/09/03 00:45:18;;;;;;;4.10;1.88;;;15.80;99.90;;;;;;5030619;28;20164;-81
2022/09/03 00:48:16;;;;;;;7.03;1.70;;;15.80;99.90;;;;;;5030633;28;20029;-80
2022/09/03 00:50:58;;;;;;;3.38;1.15;;;15.90;99.90;;;;;;5007393;28;20037;-78
2022/09/03 00:53:50;;;;;;;6.47;2.33;;;15.90;99.90;;;;;;5029967;28;20032;-78
2022/09/03 00:56:39;;;;;;;5.22;1.90;;;15.90;99.90;;;;;;5047969;28;20028;-80
2022/09/03 00:59:20;;;;;;;5.28;1.77;;;15.90;99.90;;;;;;5029854;28;20062;-81
2022/09/03 01:02:04;;;;;;;3.42;1.33;;;15.90;99.90;;;;;;5031779;28;20032;-84
2022/09/03 01:05:00;;;;;;;11.75;1.85;;;15.90;99.90;;;;;;5048205;28;20120;-81
2022/09/03 01:07:54;;;;;;;3.97;1.70;;;15.90;99.90;;;;;;5030565;28;20029;-80
2022/09/03 01:10:26;;;;;;;6.63;1.17;;;15.90;99.90;;;;;;5049662;28;20026;-82
2022/09/03 01:13:18;;;;;;;4.65;1.58;;;15.90;99.90;;;;;;5031530;28;20032;-82
2022/09/03 01:16:26;;;;;;;5.15;1.23;;;15.90;99.90;;;;;;5025594;28;20041;-82
2022/09/03 01:19:14;;;;;;;4.05;1.25;;;15.90;99.90;;;;;;5031633;28;20055;-82
2022/09/03 01:22:04;;;;;;;3.70;1.58;;;15.90;99.90;;;;;;5030028;28;20029;-80
2022/09/03 01:24:46;;;;;;;4.93;1.85;;;15.90;99.90;;;;;;5033985;28;20048;-81
2022/09/03 01:27:31;;;;;;;4.50;1.52;;;15.80;99.90;;;;;;5028579;28;20505;-80
2022/09/03 01:30:17;;;;;;;2.92;1.20;;;15.80;99.90;;;;;;5030268;28;20500;-82
2022/09/03 01:33:27;;;;;;;3.70;1.40;;;15.80;99.90;;;;;;5049803;28;20515;-79
2022/09/03 01:36:25;;;;;;;2.63;1.05;;;15.90;99.90;;;;;;4990228;28;20184;-82
2022/09/03 01:39:05;;;;;;;6.30;1.30;;;15.80;99.90;;;;;;5062673;28;20055;-79
2022/09/03 01:42:17;;;;;;;3.15;1.42;;;15.90;99.90;;;;;;5067075;28;20024;-80
2022/09/03 01:45:21;;;;;;;3.70;1.40;;;15.90;99.90;;;;;;5048901;28;20044;-79
2022/09/03 01:47:55;;;;;;;4.80;1.50;;;15.90;99.90;;;;;;5049400;28;20050;-81
2022/09/03 01:50:46;;;;;;;2.95;1.38;;;15.80;99.90;;;;;;5048712;28;20099;-81
2022/09/03 01:53:34;;;;;;;5.15;1.17;;;15.80;99.90;;;;;;5066474;28;20052;-80
2022/09/03 01:56:13;;;;;;;6.80;1.70;;;15.80;99.90;;;;;;5067065;28;20024;-81
2022/09/03 01:58:48;;;;;;;3.70;1.48;;;15.70;99.90;;;;;;5067124;28;20022;-80
2022/09/03 02:01:35;;;;;;;4.53;1.45;;;15.70;99.90;;;;;;5048612;28;20093;-80
2022/09/03 02:04:01;;;;;;;10.55;2.03;;;15.70;99.90;;;;;;5048557;28;20047;-80
2022/09/03 02:06:30;;;;;;;3.58;1.20;;;15.70;99.90;;;;;;5049161;28;20028;-81
2022/09/03 02:08:57;;;;;;;4.90;1.52;;;15.70;99.90;;;;;;5048520;28;20020;-81
2022/09/03 02:11:23;;;;;;;5.60;1.40;;;15.70;99.90;;;;;;5048913;28;20029;-81
2022/09/03 02:13:53;;;;;;;6.20;1.20;;;15.80;99.90;;;;;;5066678;28;20035;-81
2022/09/03 02:16:25;;;;;;;3.13;1.00;;;15.80;99.90;;;;;;5066488;28;20108;-79
2022/09/03 02:18:56;;;;;;;3.25;0.98;;;15.90;99.90;;;;;;5048314;28;20111;-80
2022/09/03 02:21:24;;;;;;;3.10;1.10;;;15.90;99.90;;;;;;5048099;28;20029;-80
2022/09/03 02:23:50;;;;;;;10.10;1.88;;;15.90;99.90;;;;;;5048681;28;20032;-80
2022/09/03 02:26:21;;;;;;;6.75;1.20;;;16.00;99.90;;;;;;5066267;28;20040;-81
2022/09/03 02:28:48;;;;;;;7.20;1.05;;;16.00;99.90;;;;;;5066633;28;20017;-80
2022/09/03 02:31:14;;;;;;;8.98;1.33;;;16.00;99.90;;;;;;5048175;28;20037;-79
2022/09/03 02:33:43;;;;;;;11.75;1.08;;;16.00;99.90;;;;;;5066231;28;20023;-80
2022/09/03 02:36:11;;;;;;;4.88;1.50;;;16.10;99.90;;;;;;5066660;28;20040;-81
2022/09/03 02:38:37;;;;;;;4.43;1.30;;;16.00;99.90;;;;;;5048654;28;20405;-80
2022/09/03 02:41:02;;;;;;;3.63;1.60;;;16.10;99.90;;;;;;5049044;28;20036;-80
2022/09/03 02:43:56;;;;;;;7.03;1.23;;;16.10;99.90;;;;;;5049013;28;20029;-82
2022/09/03 02:46:26;;;;;;;4.45;1.00;;;16.10;99.90;;;;;;5045280;28;20056;-81
2022/09/03 02:48:52;;;;;;;5.53;1.50;;;16.10;99.90;;;;;;5044254;28;20572;-82
2022/09/03 02:51:18;;;;;;;3.63;1.15;;;16.10;99.90;;;;;;5045017;28;20532;-80
2022/09/03 02:53:44;;;;;;;7.05;1.30;;;16.00;99.90;;;;;;5045801;28;20096;-81
2022/09/03 02:56:11;;;;;;;3.70;1.90;;;16.00;99.90;;;;;;5044715;28;20033;-80
2022/09/03 02:58:38;;;;;;;5.00;1.45;;;16.00;99.90;;;;;;5046481;28;20108;-82
2022/09/03 03:01:04;;;;;;;2.42;0.90;;;16.00;99.90;;;;;;5044620;28;20524;-81
2022/09/03 03:03:30;;;;;;;10.00;1.25;;;15.80;99.90;;;;;;5046415;28;20037;-81
2022/09/03 03:05:59;;;;;;;4.07;1.13;;;15.80;99.90;;;;;;5045982;28;20103;-82
2022/09/03 03:08:27;;;;;;;5.90;1.52;;;15.80;99.90;;;;;;5046461;28;20029;-80
2022/09/03 03:10:57;;;;;;;4.25;1.55;;;15.70;99.90;;;;;;5040797;28;20029;-80
2022/09/03 03:13:23;;;;;;;6.10;1.40;;;15.70;99.90;;;;;;5030115;28;20032;-80
2022/09/03 03:15:49;;;;;;;5.63;1.20;;;15.70;99.90;;;;;;5040204;28;20029;-82
2022/09/03 03:18:16;;;;;;;6.47;1.58;;;15.60;99.90;;;;;;5023490;28;20029;-80
2022/09/03 03:20:42;;;;;;;4.00;1.35;;;15.60;99.90;;;;;;5038477;28;20025;-81
2022/09/03 03:23:08;;;;;;;6.53;1.67;;;15.60;99.90;;;;;;5026036;28;20624;-80
2022/09/03 03:25:36;;;;;;;7.53;1.17;;;15.50;99.90;;;;;;5022374;28;20103;-81
2022/09/03 03:28:03;;;;;;;3.47;1.25;;;15.50;99.90;;;;;;5027491;28;20022;-80
2022/09/03 03:30:30;;;;;;;3.17;1.20;;;15.50;99.90;;;;;;5030169;28;20737;-81
2022/09/03 03:32:56;;;;;;;11.85;1.35;;;15.50;99.90;;;;;;5012326;28;20084;-78
2022/09/03 03:35:22;;;;;;;5.50;1.10;;;15.40;99.90;;;;;;5007803;28;20022;-80
2022/09/03 03:37:47;;;;;;;4.60;1.48;;;15.40;99.90;;;;;;5007873;28;20076;-79
2022/09/03 03:40:14;;;;;;;3.83;1.17;;;15.40;99.90;;;;;;5008012;28;20434;-80
2022/09/03 03:42:40;;;;;;;3.65;1.30;;;15.30;99.90;;;;;;5010054;28;20125;-80
2022/09/03 03:45:06;;;;;;;5.88;1.35;;;15.30;99.90;;;;;;5039513;28;20509;-81
2022/09/03 03:47:32;;;;;;;2.78;1.17;;;15.30;99.90;;;;;;5048043;28;20036;-82
2022/09/03 03:49:58;;;;;;;4.03;1.50;;;15.20;99.90;;;;;;5048475;28;20043;-81
2022/09/03 03:52:25;;;;;;;3.35;1.45;;;15.20;99.90;;;;;;5049791;28;20032;-81
2022/09/03 03:54:52;;;;;;;5.10;1.67;;;15.20;99.90;;;;;;5048514;28;20021;-82
2022/09/03 03:57:19;;;;;;;4.90;1.60;;;15.20;99.90;;;;;;5045776;28;20440;-81
2022/09/03 03:59:46;;;;;;;3.95;1.30;;;15.10;99.90;;;;;;5046999;28;20503;-81
2022/09/03 04:02:12;;;;;;;3.20;1.45;;;15.10;99.90;;;;;;5047223;28;20033;-81
2022/09/03 04:04:38;;;;;;;4.53;1.27;;;15.00;99.90;;;;;;5047893;28;20429;-81
2022/09/03 04:07:03;;;;;;;;;;;15.00;99.90;;;;;;5048361;28;20021;-80
2022/09/03 04:09:29;;;;;;;4.85;1.40;;;14.90;99.90;;;;;;5042831;28;19905;-81
2022/09/03 04:11:57;;;;;;;3.17;1.23;;;14.80;99.90;;;;;;5017267;28;20237;-81
2022/09/03 04:14:24;;;;;;;6.03;1.90;;;14.80;99.90;;;;;;5009253;28;20033;-81
2022/09/03 04:16:50;;;;;;;5.40;1.13;;;14.70;99.90;;;;;;5024567;28;20536;-81
2022/09/03 04:19:16;;;;;;;;;;;14.60;99.90;;;;;;5024779;28;20021;-81
2022/09/03 04:21:42;;;;;;;5.00;2.10;;;14.60;99.90;;;;;;5024093;28;19910;-81
2022/09/03 04:24:08;;;;;;;3.42;1.33;;;14.50;99.90;;;;;;5037048;28;20044;-81
2022/09/03 04:26:35;;;;;;;4.03;1.35;;;14.40;99.90;;;;;;5047394;28;20119;-81
2022/09/03 04:29:06;;;;;;;3.67;1.50;;;14.40;99.90;;;;;;5048636;28;20128;-81
2022/09/03 04:31:33;;;;;;;3.65;1.10;;;14.40;99.90;;;;;;5048296;28;20024;-79
2022/09/03 04:33:59;;;;;;;4.47;1.20;;;14.40;99.90;;;;;;5048430;28;20633;-82
2022/09/03 04:36:25;;;;;;;;;;;14.50;99.90;;;;;;5046911;28;20025;-80
2022/09/03 04:38:53;;;;;;;3.08;1.42;;;14.50;99.90;;;;;;5046520;28;19978;-82
2022/09/03 04:41:23;;;;;;;3.83;1.60;;;14.50;99.90;;;;;;5047019;28;20067;-81
2022/09/03 04:43:51;;;;;;;6.30;1.48;;;14.60;99.90;;;;;;5048171;28;20401;-80
2022/09/03 04:46:19;;;;;;;3.83;1.25;;;14.70;99.90;;;;;;5047164;28;20048;-82
2022/09/03 04:48:49;;;;;;;6.38;1.55;;;14.70;99.90;;;;;;5047337;28;20029;-81
2022/09/03 04:51:17;;;;;;;7.43;1.77;;;14.80;99.90;;;;;;5047112;28;20033;-81
2022/09/03 04:53:45;;;;;;;4.57;1.73;;;14.80;99.90;;;;;;5047348;28;20478;-81
2022/09/03 04:56:22;;;;;;;5.03;1.35;;;14.90;99.90;;;;;;5047085;28;20394;-81
2022/09/03 04:58:52;;;;;;;9.00;1.60;;;15.00;99.90;;;;;;5047918;28;20039;-81
2022/09/03 05:01:21;;;;;;;6.50;1.48;;;15.10;99.90;;;;;;5047345;28;20188;-82
2022/09/03 05:03:47;;;;;;;4.25;1.10;;;15.10;99.90;;;;;;5047763;28;20048;-81
2022/09/03 05:06:15;;;;;;;11.27;2.00;;;15.20;99.90;;;;;;5046494;28;20305;-81
2022/09/03 05:08:43;;;;;;;4.18;1.50;;;15.30;99.90;;;;;;5046654;28;20451;-81
2022/09/03 05:11:09;;;;;;;8.10;1.40;;;15.40;99.90;;;;;;5046544;28;20037;-81
2022/09/03 05:13:38;;;;;;;4.85;1.40;;;15.50;99.90;;;;;;5047967;28;20047;-81
2022/09/03 05:16:06;;;;;;;5.88;1.92;;;15.70;99.90;;;;;;5046387;28;20115;-79
2022/09/03 05:18:36;;;;;;;3.30;1.27;;;15.80;99.90;;;;;;5046783;28;20025;-81
2022/09/03 05:21:04;;;;;;;2.03;0.98;;;15.90;99.90;;;;;;5046510;28;20086;-83
2022/09/03 05:23:31;;;;;;;5.50;1.55;;;16.00;99.90;;;;;;5047373;28;20025;-80
2022/09/03 05:25:59;;;;;;;4.68;1.38;;;16.10;99.90;;;;;;5047837;28;20037;-82
2022/09/03 05:28:29;;;;;;;5.10;1.40;;;16.10;99.90;;;;;;5045784;28;20044;-80
2022/09/03 05:31:08;;;;;;;5.28;1.50;;;16.20;99.90;;;;;;5046105;28;20029;-81
2022/09/03 05:33:35;;;;;;;2.80;1.23;;;16.30;99.90;;;;;;5046374;28;20054;-81
2022/09/03 05:36:06;;;;;;;5.00;1.58;;;16.40;99.90;;;;;;5046186;28;20029;-82
2022/09/03 05:38:32;;;;;;;2.90;1.08;;;16.40;99.90;;;;;;5047501;28;20152;-82
2022/09/03 05:41:00;;;;;;;4.72;1.73;;;16.50;99.90;;;;;;5047337;28;20040;-81
2022/09/03 05:43:27;;;;;;;6.63;1.75;;;16.60;99.90;;;;;;5045988;28;20024;-80
2022/09/03 05:46:01;;;;;;;5.43;1.55;;;16.80;99.90;;;;;;5055959;28;20071;-81
2022/09/03 05:48:30;;;;;;;5.85;1.40;;;16.80;99.90;;;;;;5050004;28;20020;-82
2022/09/03 05:51:00;;;;;;;6.00;1.33;;;16.80;99.90;;;;;;5049710;28;20063;-82
2022/09/03 05:53:31;;;;;;;3.08;1.23;;;16.80;99.90;;;;;;5066899;28;20067;-81
2022/09/03 05:55:58;;;;;;;6.60;1.52;;;16.90;99.90;;;;;;5049217;28;20029;-81
2022/09/03 05:58:25;;;;;;;5.45;1.10;;;17.30;99.90;;;;;;5049399;28;20059;-82
2022/09/03 06:00:51;;;;;;;6.72;1.60;;;17.90;99.90;;;;;;5067146;28;20484;-81
2022/09/03 06:03:17;;;;;;;3.20;1.30;;;18.80;99.90;;;;;;5049210;28;20078;-82
2022/09/03 06:05:50;;;;;;;6.38;1.83;;;19.50;99.90;;;;;;5048057;28;20035;-82
2022/09/03 06:08:16;;;;;;;4.20;1.20;;;20.30;99.90;;;;;;5048903;28;20373;-83
2022/09/03 06:10:41;;;;;;;19.38;1.58;;;20.90;99.90;;;;;;5048237;28;20035;-83
2022/09/03 06:13:07;;;;;;;5.15;1.55;;;21.50;99.60;;;;;;5066915;28;20060;-82
2022/09/03 06:15:32;;;;;;;6.47;1.52;;;22.20;97.50;;;;;;5048370;28;20028;-82
2022/09/03 06:17:58;;;;;;;3.72;1.20;;;22.80;96.40;;;;;;5049053;28;20028;-82
2022/09/03 06:20:26;;;;;;;8.38;2.50;;;23.40;94.70;;;;;;5066842;28;20032;-82
2022/09/03 06:22:52;;;;;;;9.48;1.85;;;24.00;92.60;;;;;;5066657;28;20086;-83
2022/09/03 06:25:18;;;;;;;4.35;1.50;;;24.20;90.50;;;;;;5066398;28;20405;-81
2022/09/03 06:27:44;;;;;;;15.82;5.28;;;24.70;86.30;;;;;;5048614;28;20123;-80
2022/09/03 06:30:12;;;;;;;9.25;1.98;;;25.10;85.40;;;;;;5048060;28;20090;-80
2022/09/03 06:32:44;;;;;;;4.35;1.60;;;25.60;82.60;;;;;;5066911;28;20074;-80
2022/09/03 06:35:10;;;;;;;4.40;1.90;;;25.90;78.00;;;;;;5048364;28;20025;-80
2022/09/03 06:37:39;;;;;;;10.10;1.63;;;26.20;76.30;;;;;;5066622;28;20074;-80
2022/09/03 06:40:11;;;;;;;4.68;1.42;;;26.50;73.20;;;;;;5048690;28;20115;-81
2022/09/03 06:42:39;;;;;;;6.55;2.25;;;26.60;72.60;;;;;;5048756;28;20253;-79
2022/09/03 06:45:06;;;;;;;21.85;5.35;;;26.80;70.50;;;;;;5066183;28;20043;-80
2022/09/03 06:47:32;;;;;;;9.98;2.88;;;26.70;69.50;;;;;;5047898;28;20028;-81
2022/09/03 06:49:59;;;;;;;4.13;1.83;;;26.90;69.70;;;;;;5048662;28;20062;-80
2022/09/03 06:52:25;;;;;;;13.93;1.90;;;26.90;65.90;;;;;;5048610;28;20111;-81
2022/09/03 06:54:51;;;;;;;6.10;1.80;;;26.60;68.40;;;;;;5048493;28;20064;-81
2022/09/03 06:57:17;;;;;;;4.97;2.30;;;27.30;66.00;;;;;;5048070;28;20079;-80
2022/09/03 06:59:42;;;;;;;4.93;1.77;;;27.80;64.70;;;;;;5068072;28;20035;-81
2022/09/03 07:02:09;;;;;;;3.85;1.45;;;27.90;63.40;;;;;;5053662;28;20631;-81
2022/09/03 07:04:35;;;;;;;5.07;1.45;;;28.00;63.30;;;;;;5073303;28;20028;-81
2022/09/03 07:07:01;;;;;;;7.35;2.20;;;28.60;63.20;;;;;;5071789;28;20036;-81
2022/09/03 07:09:27;;;;;;;8.57;1.80;;;29.10;60.50;;;;;;5071654;28;20267;-81
2022/09/03 07:11:53;;;;;;;3.97;1.67;;;29.30;59.70;;;;;;5053749;28;20120;-79
2022/09/03 07:14:21;;;;;;;8.10;2.22;;;29.50;57.90;;;;;;5070341;28;20113;-81
2022/09/03 07:16:50;;;;;;;6.68;1.83;;;29.70;57.00;;;;;;5051987;28;20524;-81
2022/09/03 07:19:16;;;;;;;4.40;1.67;;;29.80;56.60;;;;;;5069711;28;20115;-81
2022/09/03 07:21:42;;;;;;;3.78;1.70;;;30.00;54.90;;;;;;5052048;28;20025;-80
2022/09/03 07:24:09;;;;;;;8.73;1.73;;;30.20;53.80;;;;;;5051781;28;20408;-80
2022/09/03 07:26:42;;;;;;;9.55;2.65;;;30.30;52.70;;;;;;5052270;28;20061;-81
2022/09/03 07:29:08;;;;;;;7.47;1.52;;;30.30;52.90;;;;;;5051381;28;20028;-81
2022/09/03 07:31:40;;;;;;;7.57;1.70;;;30.40;52.20;;;;;;5069209;28;20028;-81
2022/09/03 07:34:08;;;;;;;6.05;1.60;;;30.60;51.70;;;;;;5051450;28;20117;-81
2022/09/03 07:36:42;;;;;;;4.75;1.10;;;30.90;51.00;;;;;;5052059;28;20025;-81
2022/09/03 07:39:10;;;;;;;3.85;1.52;;;31.20;50.40;;;;;;5051301;28;20016;-81
2022/09/03 07:41:37;;;;;;;4.10;1.83;;;31.50;49.40;;;;;;5069792;28;20409;-81
2022/09/03 07:44:06;;;;;;;5.07;1.40;;;31.60;48.90;;;;;;5069353;28;20033;-83
2022/09/03 07:46:34;;;;;;;8.88;1.75;;;31.70;49.20;;;;;;5051583;28;20531;-82
2022/09/03 07:49:04;;;;;;;4.93;1.73;;;32.00;48.10;;;;;;5050727;28;20024;-81
2022/09/03 07:51:32;;;;;;;4.72;1.50;;;31.90;46.40;;;;;;5051379;28;20046;-82
2022/09/03 07:54:00;;;;;;;4.68;1.27;;;31.90;46.80;;;;;;5069594;28;20107;-82
2022/09/03 07:56:30;;;;;;;6.35;1.52;;;32.50;46.70;;;;;;5051269;28;20392;-83
2022/09/03 07:58:56;;;;;;;3.75;1.60;;;32.80;47.00;;;;;;5069022;28;20595;-82
2022/09/03 08:01:24;;;;;;;4.93;1.40;;;33.20;46.40;;;;;;5068935;28;20074;-82
2022/09/03 08:03:52;;;;;;;4.43;1.42;;;33.10;45.40;;;;;;5050727;28;20025;-82
2022/09/03 08:06:19;;;;;;;5.20;1.48;;;33.30;45.00;;;;;;5051391;28;20044;-82
2022/09/03 08:08:45;;;;;;;3.47;1.30;;;33.50;43.20;;;;;;5068754;28;20107;-82
2022/09/03 08:11:17;;;;;;;3.72;1.27;;;33.40;43.30;;;;;;5067795;28;20024;-82
2022/09/03 08:13:52;;;;;;;4.15;1.45;;;33.70;43.10;;;;;;5050466;28;20035;-81
2022/09/03 08:16:18;;;;;;;3.78;1.38;;;33.50;42.40;;;;;;5068952;28;20054;-81
2022/09/03 08:18:46;;;;;;;4.13;1.42;;;33.30;43.60;;;;;;5068832;28;20381;-81
2022/09/03 08:21:14;;;;;;;3.38;1.13;;;33.20;42.50;;;;;;5050248;28;20039;-81
2022/09/03 08:23:43;;;;;;;4.07;1.35;;;33.20;42.60;;;;;;5050941;28;20027;-81
2022/09/03 08:26:09;;;;;;;3.88;1.20;;;33.10;41.90;;;;;;5068415;28;20478;-81
2022/09/03 08:28:36;;;;;;;3.15;1.38;;;33.00;42.90;;;;;;5050194;28;20557;-80
2022/09/03 08:31:10;;;;;;;3.10;1.23;;;32.90;43.10;;;;;;5068067;28;20035;-81
2022/09/03 08:33:36;;;;;;;6.93;1.55;;;32.80;42.30;;;;;;5050481;28;20016;-81
2022/09/03 08:36:08;;;;;;;3.35;1.15;;;32.60;42.60;;;;;;5068416;28;20040;-82
2022/09/03 08:38:35;;;;;;;7.90;1.73;;;32.70;43.70;;;;;;5049911;28;20063;-82
2022/09/03 08:41:07;;;;;;;8.63;1.55;;;32.90;43.40;;;;;;5068615;28;20021;-82
2022/09/03 08:43:58;;;;;;;7.38;1.92;;;32.80;45.20;;;;;;5050083;28;20040;-82
2022/09/03 08:46:32;;;;;;;3.17;1.00;;;33.10;43.40;;;;;;5067792;28;20137;-81
2022/09/03 08:48:59;;;;;;;3.38;1.27;;;32.80;43.10;;;;;;5067894;28;20040;-82
2022/09/03 08:51:29;;;;;;;8.60;1.17;;;32.60;42.50;;;;;;5050383;28;20105;-82
2022/09/03 08:53:57;;;;;;;4.38;1.73;;;32.50;43.00;;;;;;5050397;28;20032;-83
2022/09/03 08:56:30;;;;;;;4.20;1.65;;;32.90;43.60;;;;;;5068031;28;20095;-81
2022/09/03 08:58:56;;;;;;;6.80;1.20;;;33.20;42.50;;;;;;5049236;28;20033;-81
2022/09/03 09:01:30;;;;;;;2.42;1.17;;;33.40;42.20;;;;;;5067889;28;20035;-82
2022/09/03 09:03:58;;;;;;;3.40;1.23;;;33.50;41.70;;;;;;5067543;28;20759;-81
2022/09/03 09:06:50;;;;;;;4.70;1.58;;;33.10;41.50;;;;;;5049500;28;20335;-82
2022/09/03 09:09:47;;;;;;;5.28;1.73;;;32.70;41.20;;;;;;5049153;28;20043;-81
2022/09/03 09:12:31;;;;;;;5.30;1.25;;;32.10;42.10;;;;;;5049643;28;20025;-81
2022/09/03 09:15:27;;;;;;;9.07;1.17;;;32.30;44.30;;;;;;5049332;28;20037;-82
2022/09/03 09:18:03;;;;;;;7.10;1.70;;;32.40;42.70;;;;;;5049063;28;20119;-82
2022/09/03 09:20:53;;;;;;;4.97;1.55;;;32.70;43.60;;;;;;5049354;28;20137;-84
2022/09/03 09:23:34;;;;;;;5.90;1.45;;;32.80;42.10;;;;;;5048423;28;20033;-81
2022/09/03 09:26:07;;;;;;;4.53;1.75;;;32.60;42.10;;;;;;5067494;28;20561;-80
2022/09/03 09:28:36;;;;;;;3.25;1.10;;;32.60;42.80;;;;;;5067391;28;20493;-81
2022/09/03 09:31:04;;;;;;;4.70;1.45;;;32.60;43.90;;;;;;5049395;28;20028;-81
2022/09/03 09:33:31;;;;;;;4.45;1.48;;;32.70;43.50;;;;;;5049460;28;20377;-81
2022/09/03 09:36:07;;;;;;;4.28;1.33;;;32.90;44.10;;;;;;5049528;28;20055;-80
2022/09/03 09:38:35;;;;;;;4.35;1.05;;;33.20;44.10;;;;;;5049275;28;20119;-81
2022/09/03 09:41:16;;;;;;;3.25;1.20;;;33.60;43.40;;;;;;5066578;28;20120;-80
2022/09/03 09:43:42;;;;;;;4.57;1.20;;;33.60;43.00;;;;;;5066627;28;20056;-79
2022/09/03 09:46:24;;;;;;;6.30;1.20;;;34.00;42.60;;;;;;5066622;28;20121;-80
2022/09/03 09:48:57;;;;;;;2.55;1.20;;;34.10;42.40;;;;;;5066421;28;20400;-82
2022/09/03 09:51:24;;;;;;;3.20;1.30;;;34.10;42.50;;;;;;5066926;28;20209;-81
2022/09/03 09:54:13;;;;;;;4.25;1.20;;;33.90;41.90;;;;;;5049078;28;20033;-80
2022/09/03 09:56:41;;;;;;;3.95;1.58;;;33.90;41.30;;;;;;5048734;28;20077;-79
2022/09/03 09:59:09;;;;;;;8.63;1.00;;;33.80;42.50;;;;;;5048854;28;20162;-80
2022/09/03 10:01:46;;;;;;;7.22;0.90;;;34.00;42.00;;;;;;5049660;28;20021;-83
2022/09/03 10:04:23;;;;;;;3.20;0.90;;;34.10;40.60;;;;;;5049038;28;20028;-81
2022/09/03 10:07:00;;;;;;;5.50;1.42;;;34.10;40.00;;;;;;5049500;28;20066;-83
2022/09/03 10:09:28;;;;;;;3.78;1.20;;;34.20;40.50;;;;;;5048397;28;20164;-83
2022/09/03 10:12:26;;;;;;;5.32;1.40;;;34.00;39.80;;;;;;5048439;28;20029;-82
2022/09/03 10:15:02;;;;;;;12.20;1.15;;;34.10;40.10;;;;;;5042940;28;20037;-82
2022/09/03 10:17:51;;;;;;;4.30;1.27;;;33.40;39.00;;;;;;5048745;28;20040;-81
2022/09/03 10:20:32;;;;;;;4.30;0.90;;;33.20;41.50;;;;;;5067494;28;20025;-81
2022/09/03 10:23:07;;;;;;;4.97;1.25;;;32.80;42.40;;;;;;5048847;28;20028;-81
2022/09/03 10:25:42;;;;;;;3.33;1.43;;;32.10;43.30;;;;;;5066422;28;20041;-81
2022/09/03 10:28:09;;;;;;;7.55;1.00;;;31.30;44.00;;;;;;5048981;28;20048;-82
2022/09/03 10:31:07;;;;;;;2.33;0.98;;;30.60;43.30;;;;;;5048873;28;20028;-81
2022/09/03 10:34:03;;;;;;;2.47;1.30;;;30.50;45.00;;;;;;5048387;28;20040;-81
2022/09/03 10:36:54;;;;;;;7.20;0.90;;;30.10;43.40;;;;;;5066704;28;20512;-81
2022/09/03 10:39:54;;;;;;;2.30;1.05;;;29.70;45.20;;;;;;5056138;28;20040;-80
2022/09/03 10:42:29;;;;;;;1.98;0.77;;;29.60;46.60;;;;;;5055525;28;20085;-81
2022/09/03 10:45:02;;;;;;;2.67;1.05;;;29.60;46.30;;;;;;5056830;28;20036;-82
2022/09/03 10:48:05;;;;;;;6.55;1.00;;;29.50;46.50;;;;;;5067666;28;20056;-82
2022/09/03 10:50:51;;;;;;;2.70;1.00;;;29.40;46.60;;;;;;5049902;28;20127;-82
2022/09/03 10:53:30;;;;;;;2.95;1.00;;;29.20;46.50;;;;;;5068125;28;20024;-82
2022/09/03 10:56:18;;;;;;;3.78;1.15;;;29.20;48.00;;;;;;5067387;28;20112;-82
2022/09/03 10:59:18;;;;;;;2.03;0.70;;;29.30;47.50;;;;;;5066077;28;20489;-83
2022/09/03 11:02:08;;;;;;;5.50;1.10;;;29.20;47.80;;;;;;5048333;28;20034;-82
2022/09/03 11:05:17;;;;;;;9.38;1.60;;;29.20;47.10;;;;;;5048297;28;20429;-81
2022/09/03 11:07:50;;;;;;;3.13;1.00;;;29.00;47.90;;;;;;5033393;28;20120;-82
2022/09/03 11:10:25;;;;;;;2.83;0.80;;;28.80;47.40;;;;;;5048377;28;20082;-81
2022/09/03 11:12:57;;;;;;;3.50;0.85;;;28.90;49.30;;;;;;5048385;28;20810;-81
2022/09/03 11:15:33;;;;;;;3.20;1.10;;;28.80;48.10;;;;;;5048829;28;20464;-82
2022/09/03 11:18:12;;;;;;;3.45;0.90;;;28.80;47.70;;;;;;5048344;28;20028;-81
2022/09/03 11:20:39;;;;;;;6.80;1.13;;;28.80;48.30;;;;;;5048582;28;20780;-80
2022/09/03 11:23:12;;;;;;;3.13;1.15;;;28.70;47.60;;;;;;5066920;28;20054;-82
2022/09/03 11:25:46;;;;;;;3.83;1.10;;;28.70;47.60;;;;;;5048821;28;20548;-82
2022/09/03 11:28:22;;;;;;;5.93;1.10;;;28.60;47.40;;;;;;5048772;28;20063;-82
2022/09/03 11:31:16;;;;;;;1.48;0.77;;;28.60;47.50;;;;;;5048372;28;20407;-81
2022/09/03 11:34:00;;;;;;;5.80;1.23;;;28.70;47.30;;;;;;5048297;28;20036;-81
2022/09/03 11:36:35;;;;;;;2.38;0.60;;;28.50;47.60;;;;;;5048145;28;20035;-81
2022/09/03 11:39:32;;;;;;;2.83;0.83;;;28.40;47.50;;;;;;5066192;28;20557;-81
2022/09/03 11:42:03;;;;;;;2.45;0.90;;;28.20;48.10;;;;;;5047018;28;20033;-81
2022/09/03 11:44:40;;;;;;;4.55;0.70;;;28.20;47.60;;;;;;5048023;28;20187;-81
2022/09/03 11:47:24;;;;;;;2.88;0.70;;;28.40;47.90;;;;;;5049643;28;20059;-80
2022/09/03 11:49:52;;;;;;;3.65;0.80;;;28.40;46.70;;;;;;5051183;28;20465;-81
2022/09/03 11:52:26;;;;;;;1.90;0.70;;;28.40;47.60;;;;;;5051627;28;20052;-81
2022/09/03 11:54:52;;;;;;;2.45;0.82;;;28.50;47.10;;;;;;5051350;28;20029;-81
2022/09/03 11:57:32;;;;;;;2.60;0.50;;;28.40;47.00;;;;;;5069366;28;20561;-81
2022/09/03 12:00:11;;;;;;;5.95;0.90;;;28.40;45.50;;;;;;5051325;28;20043;-81
2022/09/03 12:02:44;;;;;;;3.28;0.85;;;28.30;46.60;;;;;;5051191;28;20035;-80
2022/09/03 12:05:28;;;;;;;5.50;0.90;;;28.40;46.80;;;;;;5051206;28;20044;-81
2022/09/03 12:08:24;;;;;;;2.55;0.85;;;28.50;46.60;;;;;;5051326;28;20027;-81
2022/09/03 12:11:19;;;;;;;1.38;0.70;;;28.50;46.80;;;;;;5051224;28;20067;-81
2022/09/03 12:14:00;;;;;;;7.20;0.80;;;28.60;46.40;;;;;;5033787;28;20082;-82
2022/09/03 12:16:48;;;;;;;4.15;1.05;;;28.70;46.90;;;;;;5069194;28;20033;-81
2022/09/03 12:19:41;;;;;;;1.48;0.60;;;28.60;46.50;;;;;;5050745;28;20028;-82
2022/09/03 12:22:13;;;;;;;3.83;0.80;;;28.50;46.00;;;;;;5050736;28;20056;-82
2022/09/03 12:24:41;;;;;;;1.70;0.60;;;28.60;46.90;;;;;;5051367;28;20040;-81
2022/09/03 12:27:17;;;;;;;2.38;0.60;;;28.60;46.40;;;;;;5050564;28;20032;-81
2022/09/03 12:29:56;;;;;;;3.95;0.77;;;28.60;46.90;;;;;;5068291;28;20032;-81
2022/09/03 12:32:23;;;;;;;2.65;0.60;;;28.60;46.30;;;;;;5050196;28;20036;-81
2022/09/03 12:34:48;;;;;;;2.50;0.90;;;28.50;46.10;;;;;;5050997;28;20025;-80
2022/09/03 12:37:35;;;;;;;4.47;1.05;;;28.40;46.50;;;;;;5050608;28;20130;-82
2022/09/03 12:40:01;;;;;;;5.45;0.65;;;28.40;46.20;;;;;;5068671;28;20089;-82
2022/09/03 12:42:30;;;;;;;6.00;1.13;;;28.40;46.40;;;;;;5050739;28;20029;-82
2022/09/03 12:45:05;;;;;;;2.22;0.70;;;28.30;47.70;;;;;;5050876;28;20036;-82
2022/09/03 12:47:38;;;;;;;1.48;0.80;;;28.30;47.20;;;;;;5050194;28;20498;-82
2022/09/03 12:50:12;;;;;;;2.22;0.90;;;28.20;46.80;;;;;;5050543;28;20036;-82
2022/09/03 12:52:43;;;;;;;2.05;0.80;;;28.20;47.20;;;;;;5050602;28;20025;-81
2022/09/03 12:55:15;;;;;;;6.93;1.10;;;28.20;47.10;;;;;;5067848;28;20492;-80
2022/09/03 12:58:02;;;;;;;1.95;0.98;;;28.30;46.50;;;;;;5068137;28;20107;-80
2022/09/03 13:00:31;;;;;;;1.08;0.60;;;28.20;45.60;;;;;;5050509;28;20055;-80
2022/09/03 13:03:15;;;;;;;2.08;0.95;;;28.10;46.80;;;;;;5068905;28;20028;-81
2022/09/03 13:05:47;;;;;;;3.20;1.10;;;28.20;47.20;;;;;;5050237;28;20404;-81
2022/09/03 13:08:22;;;;;;;1.83;0.68;;;28.20;47.30;;;;;;5050158;28;20038;-80
2022/09/03 13:10:52;;;;;;;2.70;0.70;;;28.20;47.50;;;;;;5050133;28;20515;-81
2022/09/03 13:13:30;;;;;;;2.95;1.23;;;28.10;47.70;;;;;;5067924;28;20027;-81
2022/09/03 13:16:25;;;;;;;1.48;0.63;;;28.10;48.00;;;;;;5049532;28;20477;-80
2022/09/03 13:19:13;;;;;;;2.00;0.63;;;28.20;48.10;;;;;;5050127;28;20021;-81
2022/09/03 13:21:46;;;;;;;3.63;0.80;;;28.40;47.70;;;;;;5050008;28;20496;-81